createdAt,value
2016-03-05T00:00:58.475Z,80.43
2016-03-05T00:01:58.337Z,80.24
2016-03-05T00:02:58.277Z,80.65
2016-03-05T00:03:58.232Z,80.43
2016-03-05T00:04:58.173Z,80.52
2016-03-05T00:05:58.207Z,80.52
2016-03-05T00:06:58.116Z,80.62
2016-03-05T00:07:57.978Z,81.09
2016-03-05T00:08:57.934Z,80.62
2016-03-05T00:09:57.889Z,80.8
2016-03-05T00:10:57.845Z,80.9
2016-03-05T00:11:57.848Z,80.33
2016-03-05T00:12:57.757Z,80.52
2016-03-05T00:13:57.651Z,80.52
2016-03-05T00:14:57.575Z,80.14
2016-03-05T00:15:57.609Z,80.04
2016-03-05T00:16:57.486Z,80.62
2016-03-05T00:17:57.631Z,80.43
2016-03-05T00:18:57.398Z,80.62
2016-03-05T00:19:57.291Z,80.62
2016-03-05T00:20:57.335Z,80.43
2016-03-05T00:21:57.201Z,80.52
2016-03-05T00:22:57.098Z,80.24
2016-03-05T00:23:57.058Z,79.85
2016-03-05T00:24:56.939Z,80.24
2016-03-05T00:25:56.904Z,80.43
2016-03-05T00:26:56.840Z,80.99
2016-03-05T00:27:56.810Z,80.52
2016-03-05T00:28:56.716Z,80.99
2016-03-05T00:29:56.663Z,80.8
2016-03-05T00:30:56.615Z,80.99
2016-03-05T00:31:56.601Z,80.52
2016-03-05T00:32:56.492Z,80.52
2016-03-05T00:33:56.745Z,80.9
2016-03-05T00:34:56.387Z,80.71
2016-03-05T00:35:56.294Z,80.62
2016-03-05T00:36:56.249Z,81.09
2016-03-05T00:37:56.204Z,81.18
2016-03-05T00:38:56.158Z,81.37
2016-03-05T00:39:56.066Z,81.27
2016-03-05T00:40:56.022Z,81.18
2016-03-05T00:41:55.947Z,80.71
2016-03-05T00:42:56.013Z,80.62
2016-03-05T00:43:55.859Z,80.8
2016-03-05T00:44:55.815Z,80.43
2016-03-05T00:45:55.723Z,80.8
2016-03-05T00:46:55.664Z,80.24
2016-03-05T00:47:55.634Z,79.66
2016-03-05T00:48:55.638Z,79.95
2016-03-05T00:49:55.515Z,79.76
2016-03-05T00:50:55.440Z,79.85
2016-03-05T00:51:55.380Z,80.14
2016-03-05T00:52:55.367Z,80.24
2016-03-05T00:53:55.275Z,80.33
2016-03-05T00:54:55.217Z,80.04
2016-03-05T00:55:55.157Z,80.14
2016-03-05T00:56:55.112Z,79.76
2016-03-05T00:57:55.006Z,80.52
2016-03-05T00:58:55.039Z,80.33
2016-03-05T00:59:54.917Z,80.52
2016-03-05T01:00:54.904Z,80.62
2016-03-05T01:01:54.829Z,80.99
2016-03-05T01:02:54.770Z,80.43
2016-03-05T01:03:54.694Z,80.62
2016-03-05T01:04:54.697Z,80.52
2016-03-05T01:05:54.558Z,80.04
2016-03-05T01:06:54.514Z,80.04
2016-03-05T01:07:54.485Z,80.14
2016-03-05T01:08:54.411Z,80.04
2016-03-05T01:09:54.366Z,80.04
2016-03-05T01:10:54.354Z,80.71
2016-03-05T01:11:54.262Z,80.52
2016-03-05T01:12:54.171Z,80.24
2016-03-05T01:13:54.204Z,80.52
2016-03-05T01:14:54.082Z,80.43
2016-03-05T01:15:54.007Z,80.9
2016-03-05T01:16:53.995Z,80.8
2016-03-05T01:17:53.873Z,81.09
2016-03-05T01:18:53.828Z,81.09
2016-03-05T01:19:53.753Z,80.52
2016-03-05T01:20:53.723Z,80.62
2016-03-05T01:21:53.679Z,80.9
2016-03-05T01:22:53.603Z,80.43
2016-03-05T01:23:53.592Z,80.62
2016-03-05T01:24:53.485Z,80.43
2016-03-05T01:25:53.440Z,81.09
2016-03-05T01:26:53.411Z,81.09
2016-03-05T01:27:53.352Z,81.18
2016-03-05T01:28:53.261Z,80.71
2016-03-05T01:29:53.201Z,80.62
2016-03-05T01:30:53.188Z,80.52
2016-03-05T01:31:53.113Z,80.9
2016-03-05T01:32:53.116Z,80.33
2016-03-05T01:33:53.009Z,80.62
2016-03-05T01:34:52.980Z,80.62
2016-03-05T01:35:52.857Z,80.43
2016-03-05T01:36:52.048Z,81.09
2016-03-05T01:37:52.739Z,81.09
2016-03-05T01:38:52.663Z,81.18
2016-03-05T01:39:52.635Z,81.09
2016-03-05T01:40:52.652Z,80.8
2016-03-05T01:41:52.530Z,80.8
2016-03-05T01:42:52.579Z,80.8
2016-03-05T01:43:52.473Z,80.8
2016-03-05T01:44:52.398Z,81.09
2016-03-05T01:45:52.260Z,81.09
2016-03-05T01:46:52.310Z,81.56
2016-03-05T01:47:52.171Z,81.27
2016-03-05T01:48:52.159Z,81.56
2016-03-05T01:49:52.129Z,81.62
2016-03-05T01:50:51.976Z,81.27
2016-03-05T01:51:52.025Z,80.9
2016-03-05T01:52:51.873Z,81.18
2016-03-05T01:53:51.813Z,80.8
2016-03-05T01:54:51.768Z,81.18
2016-03-05T01:55:51.724Z,80.67
2016-03-05T01:56:51.711Z,81.18
2016-03-05T01:57:51.573Z,80.8
2016-03-05T01:58:51.529Z,81.09
2016-03-05T01:59:51.469Z,80.8
2016-03-05T02:00:51.410Z,81.18
2016-03-05T02:01:51.366Z,81.37
2016-03-05T02:02:51.289Z,80.62
2016-03-05T02:03:51.246Z,81.09
2016-03-05T02:04:51.201Z,81.18
2016-03-05T02:05:51.142Z,80.99
2016-03-05T02:06:51.098Z,80.8
2016-03-05T02:07:50.288Z,80.62
2016-03-05T02:08:50.947Z,80.52
2016-03-05T02:09:50.887Z,80.43
2016-03-05T02:10:50.827Z,80.99
2016-03-05T02:11:50.782Z,80.33
2016-03-05T02:12:50.707Z,80.24
2016-03-05T02:13:50.664Z,80.62
2016-03-05T02:14:50.651Z,80.14
2016-03-05T02:15:50.560Z,80.14
2016-03-05T02:16:50.488Z,79.85
2016-03-05T02:17:50.428Z,79.95
2016-03-05T02:18:50.430Z,80.24
2016-03-05T02:19:50.324Z,80.14
2016-03-05T02:20:50.295Z,79.95
2016-03-05T02:21:50.219Z,79.95
2016-03-05T02:22:50.161Z,80.24
2016-03-05T02:23:50.100Z,80.14
2016-03-05T02:24:50.088Z,80.14
2016-03-05T02:25:50.027Z,79.85
2016-03-05T02:26:49.937Z,80.04
2016-03-05T02:27:49.939Z,79.85
2016-03-05T02:28:49.801Z,79.76
2016-03-05T02:29:49.773Z,80.04
2016-03-05T02:30:49.682Z,80.04
2016-03-05T02:31:49.621Z,80.24
2016-03-05T02:32:49.578Z,80.24
2016-03-05T02:33:49.487Z,80.24
2016-03-05T02:34:49.427Z,79.85
2016-03-05T02:35:49.398Z,80.04
2016-03-05T02:36:49.370Z,80.14
2016-03-05T02:37:49.295Z,80.14
2016-03-05T02:38:49.234Z,80.04
2016-03-05T02:39:49.190Z,80.14
2016-03-05T02:40:49.114Z,80.24
2016-03-05T02:41:49.070Z,80.14
2016-03-05T02:42:49.011Z,79.95
2016-03-05T02:43:48.951Z,80.24
2016-03-05T02:44:48.954Z,79.95
2016-03-05T02:45:48.831Z,79.95
2016-03-05T02:46:48.866Z,79.85
2016-03-05T02:47:48.727Z,80.04
2016-03-05T02:48:48.683Z,79.85
2016-03-05T02:49:48.623Z,80.14
2016-03-05T02:50:48.548Z,80.04
2016-03-05T02:51:48.473Z,80.14
2016-03-05T02:52:48.491Z,80.14
2016-03-05T02:53:48.416Z,80.62
2016-03-05T02:54:48.293Z,80.33
2016-03-05T02:55:48.265Z,80.04
2016-03-05T02:56:48.188Z,79.95
2016-03-05T02:57:48.145Z,79.76
2016-03-05T02:58:48.132Z,80.24
2016-03-05T02:59:48.104Z,80.43
2016-03-05T03:00:47.934Z,79.85
2016-03-05T03:01:47.937Z,79.95
2016-03-05T03:02:47.845Z,80.14
2016-03-05T03:03:47.801Z,80.14
2016-03-05T03:04:47.742Z,79.95
2016-03-05T03:05:47.681Z,80.24
2016-03-05T03:06:47.638Z,80.04
2016-03-05T03:07:47.531Z,80.24
2016-03-05T03:08:47.581Z,79.85
2016-03-05T03:09:47.473Z,80.14
2016-03-05T03:10:47.398Z,80.52
2016-03-05T03:11:47.354Z,80.52
2016-03-05T03:12:47.295Z,80.62
2016-03-05T03:13:47.235Z,80.43
2016-03-05T03:14:47.175Z,80.33
2016-03-05T03:15:47.178Z,80.43
2016-03-05T03:16:47.055Z,80.62
2016-03-05T03:17:46.980Z,80.43
2016-03-05T03:18:47.029Z,80.57
2016-03-05T03:19:46.861Z,80.76
2016-03-05T03:20:46.833Z,81.14
2016-03-05T03:21:46.756Z,81.81
2016-03-05T03:22:46.713Z,81.56
2016-03-05T03:23:46.636Z,81.66
2016-03-05T03:24:46.577Z,81.81
2016-03-05T03:25:46.595Z,81.85
2016-03-05T03:26:46.504Z,81.94
2016-03-05T03:27:46.444Z,81.75
2016-03-05T03:28:46.369Z,81.37
2016-03-05T03:29:46.294Z,81.27
2016-03-05T03:30:46.234Z,81.18
2016-03-05T03:31:46.190Z,80.99
2016-03-05T03:32:46.114Z,81.18
2016-03-05T03:33:46.054Z,80.8
2016-03-05T03:34:45.995Z,81.09
2016-03-05T03:35:45.951Z,80.8
2016-03-05T03:36:45.906Z,80.99
2016-03-05T03:37:45.846Z,80.52
2016-03-05T03:38:45.755Z,80.62
2016-03-05T03:39:45.711Z,80.33
2016-03-05T03:40:45.682Z,80.43
2016-03-05T03:41:45.592Z,80.52
2016-03-05T03:42:45.548Z,80.62
2016-03-05T03:43:45.473Z,81.37
2016-03-05T03:44:45.428Z,81.18
2016-03-05T03:45:45.414Z,81.09
2016-03-05T03:46:45.308Z,80.8
2016-03-05T03:47:45.264Z,80.99
2016-03-05T03:48:45.235Z,80.99
2016-03-05T03:49:45.114Z,80.9
2016-03-05T03:50:45.084Z,81.18
2016-03-05T03:51:45.041Z,81.09
2016-03-05T03:52:44.949Z,81.18
2016-03-05T03:53:44.936Z,81.37
2016-03-05T03:54:44.829Z,81.75
2016-03-05T03:55:44.785Z,81.56
2016-03-05T03:56:44.725Z,81.75
2016-03-05T03:57:44.666Z,81.71
2016-03-05T03:58:44.685Z,81.75
2016-03-05T03:59:44.593Z,81.9
2016-03-05T04:00:44.533Z,81.9
2016-03-05T04:01:44.442Z,81.75
2016-03-05T04:02:44.413Z,81.66
2016-03-05T04:03:44.322Z,82.23
2016-03-05T04:04:44.263Z,81.47
2016-03-05T04:05:44.219Z,81.71
2016-03-05T04:06:44.143Z,81.62
2016-03-05T04:07:44.146Z,82.28
2016-03-05T04:08:44.086Z,81.99
2016-03-05T04:09:44.010Z,81.99
2016-03-05T04:10:43.935Z,81.99
2016-03-05T04:11:43.845Z,81.85
2016-03-05T04:12:43.832Z,82.18
2016-03-05T04:13:43.615Z,82.09
2016-03-05T04:14:43.712Z,81.75
2016-03-05T04:15:43.651Z,81.71
2016-03-05T04:16:43.591Z,81.71
2016-03-05T04:17:43.531Z,81.85
2016-03-05T04:18:43.457Z,81.56
2016-03-05T04:19:43.412Z,82.04
2016-03-05T04:20:43.353Z,81.81
2016-03-05T04:21:43.387Z,81.43
2016-03-05T04:22:43.249Z,81.52
2016-03-05T04:23:43.204Z,82.18
2016-03-05T04:24:43.160Z,82.09
2016-03-05T04:25:43.070Z,81.71
2016-03-05T04:26:42.978Z,81.71
2016-03-05T04:27:42.950Z,81.52
2016-03-05T04:28:42.983Z,81.52
2016-03-05T04:29:42.830Z,81.66
2016-03-05T04:30:42.770Z,81.52
2016-03-05T04:31:42.741Z,82.23
2016-03-05T04:32:42.821Z,82.18
2016-03-05T04:33:42.607Z,82.47
2016-03-05T04:34:42.594Z,82.18
2016-03-05T04:35:42.534Z,81.71
2016-03-05T04:36:42.396Z,81.99
2016-03-05T04:37:42.351Z,82.28
2016-03-05T04:38:42.338Z,82.18
2016-03-05T04:39:42.245Z,82.28
2016-03-05T04:40:42.215Z,81.81
2016-03-05T04:41:42.156Z,81.62
2016-03-05T04:42:42.097Z,82.32
2016-03-05T04:43:42.021Z,81.62
2016-03-05T04:44:42.071Z,81.81
2016-03-05T04:45:41.979Z,81.52
2016-03-05T04:46:41.856Z,81.56
2016-03-05T04:47:41.875Z,81.81
2016-03-05T04:48:41.817Z,81.75
2016-03-05T04:49:41.694Z,81.85
2016-03-05T04:50:41.587Z,81.56
2016-03-05T04:51:41.605Z,81.47
2016-03-05T04:52:41.561Z,81.47
2016-03-05T04:53:41.469Z,81.85
2016-03-05T04:54:41.363Z,81.37
2016-03-05T04:55:41.319Z,81.37
2016-03-05T04:56:41.353Z,81.27
2016-03-05T04:57:41.247Z,81.62
2016-03-05T04:58:41.203Z,81.81
2016-03-05T04:59:41.096Z,81.52
2016-03-05T05:00:41.004Z,81.24
2016-03-05T05:01:40.976Z,81.52
2016-03-05T05:02:40.932Z,81.81
2016-03-05T05:03:40.888Z,81.33
2016-03-05T05:04:40.828Z,81.62
2016-03-05T05:05:40.768Z,81.43
2016-03-05T05:06:40.709Z,81.62
2016-03-05T05:07:40.758Z,81.24
2016-03-05T05:08:40.574Z,80.95
2016-03-05T05:09:39.779Z,81.33
2016-03-05T05:10:40.455Z,81.14
2016-03-05T05:11:40.426Z,80.95
2016-03-05T05:12:40.381Z,81.33
2016-03-05T05:13:40.322Z,81.52
2016-03-05T05:14:40.246Z,81.52
2016-03-05T05:15:40.171Z,81.62
2016-03-05T05:16:40.126Z,81.43
2016-03-05T05:17:40.144Z,80.76
2016-03-05T05:18:40.022Z,81.33
2016-03-05T05:19:39.932Z,80.86
2016-03-05T05:20:39.872Z,80.86
2016-03-05T05:21:39.843Z,81.05
2016-03-05T05:22:39.783Z,81.05
2016-03-05T05:23:39.739Z,80.76
2016-03-05T05:24:39.726Z,81.14
2016-03-05T05:25:39.587Z,80.95
2016-03-05T05:26:39.544Z,81.05
2016-03-05T05:27:39.485Z,81.05
2016-03-05T05:28:39.409Z,81.14
2016-03-05T05:29:39.381Z,80.67
2016-03-05T05:30:39.304Z,80.48
2016-03-05T05:31:39.323Z,80.67
2016-03-05T05:32:39.185Z,80.76
2016-03-05T05:33:39.234Z,80.48
2016-03-05T05:34:39.065Z,80.76
2016-03-05T05:35:39.052Z,80.38
2016-03-05T05:36:38.978Z,80.1
2016-03-05T05:37:38.917Z,80.29
2016-03-05T05:38:38.841Z,79.91
2016-03-05T05:39:38.782Z,79.72
2016-03-05T05:40:38.753Z,80
2016-03-05T05:41:38.725Z,80.19
2016-03-05T05:42:38.603Z,80.19
2016-03-05T05:43:38.558Z,79.63
2016-03-05T05:44:38.592Z,79.72
2016-03-05T05:45:38.470Z,79.72
2016-03-05T05:46:38.426Z,79.82
2016-03-05T05:47:38.319Z,79.63
2016-03-05T05:48:38.274Z,78.96
2016-03-05T05:49:38.325Z,78.96
2016-03-05T05:50:38.171Z,79.06
2016-03-05T05:51:38.174Z,79.34
2016-03-05T05:52:38.035Z,79.06
2016-03-05T05:53:37.976Z,79.25
2016-03-05T05:54:37.915Z,79.25
2016-03-05T05:55:37.904Z,79.15
2016-03-05T05:56:37.797Z,78.49
2016-03-05T05:57:37.737Z,78.3
2016-03-05T05:58:37.709Z,78.02
2016-03-05T05:59:37.601Z,78.49
2016-03-05T06:00:37.589Z,78.02
2016-03-05T06:01:37.513Z,77.54
2016-03-05T06:02:37.437Z,77.25
2016-03-05T06:03:37.410Z,78.2
2016-03-05T06:04:37.334Z,78.02
2016-03-05T06:05:37.368Z,77.92
2016-03-05T06:06:37.230Z,78.11
2016-03-05T06:07:37.139Z,78.02
2016-03-05T06:08:37.111Z,78.2
2016-03-05T06:09:37.050Z,78.49
2016-03-05T06:10:36.991Z,78.3
2016-03-05T06:11:36.947Z,78.39
2016-03-05T06:12:36.950Z,78.39
2016-03-05T06:13:36.811Z,78.2
2016-03-05T06:14:36.783Z,78.39
2016-03-05T06:15:36.722Z,78.2
2016-03-05T06:16:36.632Z,77.92
2016-03-05T06:17:36.587Z,78.49
2016-03-05T06:18:36.527Z,78.87
2016-03-05T06:19:36.469Z,78.67
2016-03-05T06:20:36.486Z,78.87
2016-03-05T06:21:36.364Z,78.49
2016-03-05T06:22:36.351Z,79.34
2016-03-05T06:23:36.368Z,78.96
2016-03-05T06:24:36.309Z,78.49
2016-03-05T06:25:36.171Z,77.92
2016-03-05T06:26:36.096Z,77.35
2016-03-05T06:27:36.005Z,77.92
2016-03-05T06:28:35.961Z,78.11
2016-03-05T06:29:35.979Z,78.2
2016-03-05T06:30:35.856Z,78.58
2016-03-05T06:31:35.765Z,78.3
2016-03-05T06:32:35.707Z,78.49
2016-03-05T06:33:35.693Z,78.58
2016-03-05T06:34:34.851Z,78.87
2016-03-05T06:35:35.559Z,78.58
2016-03-05T06:36:35.514Z,78.3
2016-03-05T06:37:35.500Z,78.11
2016-03-05T06:38:35.362Z,77.54
2016-03-05T06:39:35.381Z,77.45
2016-03-05T06:40:35.478Z,77.06
2016-03-05T06:41:35.262Z,76.87
2016-03-05T06:42:35.202Z,76.78
2016-03-05T06:43:35.142Z,76.87
2016-03-05T06:44:35.207Z,77.25
2016-03-05T06:45:35.006Z,77.06
2016-03-05T06:46:34.930Z,77.45
2016-03-05T06:47:34.855Z,77.35
2016-03-05T06:48:34.937Z,78.49
2016-03-05T06:49:34.752Z,79.72
2016-03-05T06:50:34.786Z,79.91
2016-03-05T06:51:34.632Z,80.95
2016-03-05T06:52:34.557Z,81.99
2016-03-05T06:53:34.512Z,82.56
2016-03-05T06:54:34.452Z,81.99
2016-03-05T06:55:34.393Z,82.32
2016-03-05T06:56:34.365Z,82.6
2016-03-05T06:57:34.336Z,82.79
2016-03-05T06:58:34.260Z,82.7
2016-03-05T06:59:34.201Z,82.42
2016-03-05T07:00:34.125Z,82.04
2016-03-05T07:01:34.096Z,81.47
2016-03-05T07:02:33.990Z,81.56
2016-03-05T07:03:33.945Z,81.66
2016-03-05T07:04:34.090Z,81.47
2016-03-05T07:05:33.826Z,81.66
2016-03-05T07:06:33.813Z,81.56
2016-03-05T07:07:33.737Z,81.56
2016-03-05T07:08:33.647Z,81.56
2016-03-05T07:09:33.680Z,81.75
2016-03-05T07:10:33.573Z,81.47
2016-03-05T07:11:33.498Z,81.66
2016-03-05T07:12:33.423Z,82.23
2016-03-05T07:13:33.441Z,81.56
2016-03-05T07:14:33.600Z,81.56
2016-03-05T07:15:32.602Z,82.04
2016-03-05T07:16:33.511Z,82.23
2016-03-05T07:17:33.186Z,82.51
2016-03-05T07:18:33.080Z,82.79
2016-03-05T07:19:33.098Z,83.08
2016-03-05T07:20:32.976Z,82.79
2016-03-05T07:21:33.213Z,81.75
2016-03-05T07:22:32.996Z,81.56
2016-03-05T07:23:32.890Z,81.27
2016-03-05T07:24:32.768Z,81.56
2016-03-05T07:25:32.896Z,81.09
2016-03-05T07:26:32.648Z,80.99
2016-03-05T07:27:32.573Z,80.52
2016-03-05T07:28:32.732Z,79.85
2016-03-05T07:29:32.422Z,79.38
2016-03-05T07:30:32.409Z,79.38
2016-03-05T07:31:32.459Z,78.91
2016-03-05T07:32:32.289Z,78.62
2016-03-05T07:33:32.199Z,78.81
2016-03-05T07:34:32.201Z,78.62
2016-03-05T07:35:32.140Z,79.28
2016-03-05T07:36:32.065Z,79.04
2016-03-05T07:37:32.115Z,79.04
2016-03-05T07:38:31.945Z,79.23
2016-03-05T07:39:32.089Z,79.42
2016-03-05T07:40:31.826Z,78.85
2016-03-05T07:41:31.767Z,78.85
2016-03-05T07:42:31.707Z,78.75
2016-03-05T07:43:31.709Z,78.38
2016-03-05T07:44:31.712Z,77.71
2016-03-05T07:45:31.542Z,77.9
2016-03-05T07:46:31.545Z,78.38
2016-03-05T07:47:31.439Z,78.95
2016-03-05T07:48:31.425Z,78.47
2016-03-05T07:49:31.367Z,78.66
2016-03-05T07:50:31.353Z,78.85
2016-03-05T07:51:31.372Z,78.75
2016-03-05T07:52:31.171Z,78.38
2016-03-05T07:53:31.314Z,78.66
2016-03-05T07:54:31.052Z,78.56
2016-03-05T07:55:31.069Z,78.56
2016-03-05T07:56:31.026Z,78.95
2016-03-05T07:57:30.872Z,78.75
2016-03-05T07:58:30.985Z,78.38
2016-03-05T07:59:30.893Z,78.51
2016-03-05T08:00:30.990Z,78.32
2016-03-05T08:01:30.710Z,78
2016-03-05T08:02:30.699Z,78.23
2016-03-05T08:03:30.607Z,77.75
2016-03-05T08:04:30.516Z,77.84
2016-03-05T08:05:30.317Z,77.56
2016-03-05T08:06:30.382Z,77.47
2016-03-05T08:07:30.321Z,77.56
2016-03-05T08:08:30.246Z,77.56
2016-03-05T08:09:30.233Z,77.56
2016-03-05T08:10:30.143Z,77.37
2016-03-05T08:11:30.082Z,77.75
2016-03-05T08:12:30.101Z,77.56
2016-03-05T08:13:29.994Z,78.03
2016-03-05T08:14:29.950Z,78.23
2016-03-05T08:15:29.890Z,77.56
2016-03-05T08:16:29.971Z,77.66
2016-03-05T08:17:29.787Z,77.47
2016-03-05T08:18:29.743Z,77.66
2016-03-05T08:19:29.729Z,77.84
2016-03-05T08:20:29.637Z,77.37
2016-03-05T08:21:29.531Z,77.47
2016-03-05T08:22:29.503Z,77.47
2016-03-05T08:23:29.412Z,77.56
2016-03-05T08:24:29.431Z,77.66
2016-03-05T08:25:29.323Z,77.66
2016-03-05T08:26:29.389Z,78.03
2016-03-05T08:27:29.251Z,78.03
2016-03-05T08:28:29.175Z,78.03
2016-03-05T08:29:29.225Z,78.27
2016-03-05T08:30:29.102Z,77.79
2016-03-05T08:31:29.011Z,77.79
2016-03-05T08:32:28.967Z,77.7
2016-03-05T08:33:28.860Z,77.6
2016-03-05T08:34:28.864Z,77.51
2016-03-05T08:35:28.772Z,77.79
2016-03-05T08:36:28.728Z,77.31
2016-03-05T08:37:28.652Z,77.31
2016-03-05T08:38:28.593Z,77.12
2016-03-05T08:39:28.564Z,77.12
2016-03-05T08:40:28.520Z,77.41
2016-03-05T08:41:28.491Z,77.41
2016-03-05T08:42:28.416Z,77.31
2016-03-05T08:43:28.341Z,77.12
2016-03-05T08:44:28.343Z,76.84
2016-03-05T08:45:28.237Z,77.22
2016-03-05T08:46:28.193Z,77.31
2016-03-05T08:47:28.117Z,77.41
2016-03-05T08:48:28.198Z,77.12
2016-03-05T08:49:28.044Z,77.12
2016-03-05T08:50:27.954Z,77.22
2016-03-05T08:51:27.878Z,77.03
2016-03-05T08:52:27.849Z,77.12
2016-03-05T08:53:27.883Z,76.75
2016-03-05T08:54:27.729Z,76.65
2016-03-05T08:55:27.670Z,76.65
2016-03-05T08:56:27.625Z,77.22
2016-03-05T08:57:27.644Z,76.75
2016-03-05T08:58:27.553Z,76.93
2016-03-05T08:59:27.431Z,77.03
2016-03-05T09:00:27.355Z,77.12
2016-03-05T09:01:27.327Z,77.12
2016-03-05T09:02:27.283Z,77.6
2016-03-05T09:03:27.223Z,76.93
2016-03-05T09:04:27.163Z,77.22
2016-03-05T09:05:27.118Z,77.22
2016-03-05T09:06:27.027Z,77.22
2016-03-05T09:07:26.999Z,77.31
2016-03-05T09:08:26.955Z,77.51
2016-03-05T09:09:27.177Z,77.41
2016-03-05T09:10:26.835Z,77.31
2016-03-05T09:11:26.822Z,77.41
2016-03-05T09:12:26.762Z,77.22
2016-03-05T09:13:26.687Z,77.31
2016-03-05T09:14:26.612Z,77.22
2016-03-05T09:15:26.583Z,77.64
2016-03-05T09:16:26.523Z,77.07
2016-03-05T09:17:26.448Z,77.36
2016-03-05T09:18:26.434Z,77.26
2016-03-05T09:19:26.359Z,77.45
2016-03-05T09:20:26.268Z,77.31
2016-03-05T09:21:26.224Z,77.07
2016-03-05T09:22:26.179Z,77.17
2016-03-05T09:23:26.120Z,77.17
2016-03-05T09:24:26.076Z,76.78
2016-03-05T09:25:26.016Z,76.88
2016-03-05T09:26:25.956Z,76.69
2016-03-05T09:27:25.900Z,76.69
2016-03-05T09:28:25.841Z,76.59
2016-03-05T09:29:25.751Z,77.26
2016-03-05T09:30:25.881Z,77.07
2016-03-05T09:31:25.806Z,77.36
2016-03-05T09:32:25.585Z,76.4
2016-03-05T09:33:25.535Z,76.31
2016-03-05T09:34:25.564Z,76.59
2016-03-05T09:35:25.390Z,76.21
2016-03-05T09:36:25.294Z,76.21
2016-03-05T09:37:25.263Z,76.12
2016-03-05T09:38:25.202Z,76.03
2016-03-05T09:39:25.156Z,76.12
2016-03-05T09:40:25.124Z,76.06
2016-03-05T09:41:25.016Z,76.03
2016-03-05T09:42:25.002Z,75.84
2016-03-05T09:43:24.943Z,75.87
2016-03-05T09:44:24.851Z,75.96
2016-03-05T09:45:24.838Z,75.93
2016-03-05T09:46:24.794Z,76.16
2016-03-05T09:47:24.733Z,75.96
2016-03-05T09:48:24.673Z,76.16
2016-03-05T09:49:24.612Z,76.25
2016-03-05T09:50:24.552Z,75.87
2016-03-05T09:51:24.508Z,76.06
2016-03-05T09:52:24.417Z,75.49
2016-03-05T09:53:24.372Z,75.78
2016-03-05T09:54:24.313Z,75.4
2016-03-05T09:55:24.269Z,75.87
2016-03-05T09:56:24.241Z,75.21
2016-03-05T09:57:24.164Z,75.59
2016-03-05T09:58:24.136Z,75.87
2016-03-05T09:59:24.061Z,76.35
2016-03-05T10:00:24.002Z,75.68
2016-03-05T10:01:24.066Z,75.24
2016-03-05T10:02:23.990Z,75.43
2016-03-05T10:03:23.852Z,74.87
2016-03-05T10:04:23.824Z,74.96
2016-03-05T10:05:23.765Z,75.34
2016-03-05T10:06:23.705Z,74.96
2016-03-05T10:07:23.660Z,75.43
2016-03-05T10:08:23.601Z,74.77
2016-03-05T10:09:23.540Z,74.77
2016-03-05T10:10:23.465Z,75.34
2016-03-05T10:11:23.436Z,75.05
2016-03-05T10:12:23.518Z,74.87
2016-03-05T10:13:23.332Z,75.05
2016-03-05T10:14:23.289Z,74.67
2016-03-05T10:15:23.213Z,74.39
2016-03-05T10:16:23.185Z,74.39
2016-03-05T10:17:23.078Z,74.29
2016-03-05T10:18:23.064Z,74.87
2016-03-05T10:19:22.989Z,75.15
2016-03-05T10:20:22.961Z,74.67
2016-03-05T10:21:22.948Z,74.58
2016-03-05T10:22:22.889Z,74.71
2016-03-05T10:23:22.797Z,73.95
2016-03-05T10:24:22.737Z,74.43
2016-03-05T10:25:22.677Z,74.04
2016-03-05T10:26:22.649Z,73.85
2016-03-05T10:27:22.589Z,74.04
2016-03-05T10:28:22.561Z,74.14
2016-03-05T10:29:22.314Z,73.38
2016-03-05T10:30:22.675Z,73.85
2016-03-05T10:31:22.506Z,73.76
2016-03-05T10:32:22.290Z,73.1
2016-03-05T10:33:22.230Z,72.9
2016-03-05T10:34:22.185Z,72.71
2016-03-05T10:35:22.157Z,72.62
2016-03-05T10:36:22.082Z,72.71
2016-03-05T10:37:22.054Z,72.9
2016-03-05T10:38:21.979Z,73
2016-03-05T10:39:21.918Z,73.28
2016-03-05T10:40:21.155Z,73.1
2016-03-05T10:41:21.845Z,73.1
2016-03-05T10:42:21.785Z,72.9
2016-03-05T10:43:21.741Z,73
2016-03-05T10:44:21.666Z,73.1
2016-03-05T10:45:21.669Z,73
2016-03-05T10:46:21.546Z,72.94
2016-03-05T10:47:21.503Z,72.75
2016-03-05T10:48:21.473Z,72.75
2016-03-05T10:49:21.414Z,72.62
2016-03-05T10:50:21.370Z,72.27
2016-03-05T10:51:21.342Z,72.62
2016-03-05T10:52:21.281Z,73.1
2016-03-05T10:53:21.378Z,72.81
2016-03-05T10:54:21.178Z,73
2016-03-05T10:55:21.149Z,72.71
2016-03-05T10:56:21.058Z,73.38
2016-03-05T10:57:20.982Z,73.19
2016-03-05T10:58:20.923Z,73
2016-03-05T10:59:21.127Z,73.66
2016-03-05T11:00:20.834Z,73.1
2016-03-05T11:01:20.899Z,73.38
2016-03-05T11:02:20.730Z,73.28
2016-03-05T11:03:20.716Z,72.9
2016-03-05T11:04:20.610Z,73
2016-03-05T11:05:20.644Z,73.1
2016-03-05T11:06:20.522Z,73.1
2016-03-05T11:07:20.493Z,73.19
2016-03-05T11:08:20.435Z,73.1
2016-03-05T11:09:20.390Z,73.57
2016-03-05T11:10:20.298Z,73.76
2016-03-05T11:11:20.317Z,73.66
2016-03-05T11:12:20.178Z,73.1
2016-03-05T11:13:20.182Z,73
2016-03-05T11:14:20.137Z,73.85
2016-03-05T11:15:20.093Z,74.24
2016-03-05T11:16:20.002Z,74.43
2016-03-05T11:17:19.958Z,73.95
2016-03-05T11:18:19.898Z,73.85
2016-03-05T11:19:19.884Z,73.85
2016-03-05T11:20:19.809Z,73.85
2016-03-05T11:21:20.001Z,73.85
2016-03-05T11:22:19.675Z,73.57
2016-03-05T11:23:19.646Z,73
2016-03-05T11:24:19.586Z,73.1
2016-03-05T11:25:19.526Z,73.28
2016-03-05T11:26:19.544Z,72.81
2016-03-05T11:27:19.422Z,73.57
2016-03-05T11:28:19.362Z,73.66
2016-03-05T11:29:19.333Z,73.47
2016-03-05T11:30:19.275Z,73.76
2016-03-05T11:31:19.214Z,73.38
2016-03-05T11:32:19.217Z,73.85
2016-03-05T11:33:19.126Z,73.66
2016-03-05T11:34:19.050Z,73.57
2016-03-05T11:35:19.021Z,73.19
2016-03-05T11:36:18.946Z,73.47
2016-03-05T11:37:18.888Z,73
2016-03-05T11:38:18.811Z,73.47
2016-03-05T11:39:18.799Z,73
2016-03-05T11:40:18.754Z,73.19
2016-03-05T11:41:18.710Z,74.04
2016-03-05T11:42:18.618Z,73.85
2016-03-05T11:43:18.574Z,73.76
2016-03-05T11:44:18.499Z,74.14
2016-03-05T11:45:18.471Z,73.85
2016-03-05T11:46:18.458Z,73.57
2016-03-05T11:47:18.570Z,73.76
2016-03-05T11:48:18.635Z,73.95
2016-03-05T11:49:18.262Z,73.66
2016-03-05T11:50:18.204Z,73.57
2016-03-05T11:51:18.142Z,73.47
2016-03-05T11:52:18.178Z,73.47
2016-03-05T11:53:18.273Z,73.57
2016-03-05T11:54:18.167Z,73.85
2016-03-05T11:55:17.919Z,73.85
2016-03-05T11:56:17.969Z,73.57
2016-03-05T11:57:17.925Z,74.62
2016-03-05T11:58:17.833Z,75.28
2016-03-05T11:59:17.775Z,74.71
2016-03-05T12:00:17.652Z,74.04
2016-03-05T12:01:17.639Z,73.95
2016-03-05T12:02:17.610Z,74.04
2016-03-05T12:03:17.566Z,73.57
2016-03-05T12:04:17.522Z,73.66
2016-03-05T12:05:17.524Z,74.04
2016-03-05T12:06:17.419Z,73.57
2016-03-05T12:07:17.327Z,73.47
2016-03-05T12:08:17.267Z,73.57
2016-03-05T12:09:17.255Z,74.14
2016-03-05T12:10:17.194Z,74.14
2016-03-05T12:11:17.103Z,73.85
2016-03-05T12:12:17.043Z,73.66
2016-03-05T12:13:17.062Z,73.85
2016-03-05T12:14:16.954Z,73.66
2016-03-05T12:15:16.911Z,73.57
2016-03-05T12:16:16.851Z,73.66
2016-03-05T12:17:16.791Z,73.95
2016-03-05T12:18:16.793Z,74.33
2016-03-05T12:19:16.718Z,74.43
2016-03-05T12:20:16.659Z,74.71
2016-03-05T12:21:16.645Z,74.24
2016-03-05T12:22:16.743Z,74.52
2016-03-05T12:23:16.542Z,74.14
2016-03-05T12:24:16.435Z,74.24
2016-03-05T12:25:16.376Z,74.24
2016-03-05T12:26:16.331Z,74.24
2016-03-05T12:27:16.271Z,74.43
2016-03-05T12:28:16.242Z,74.62
2016-03-05T12:29:16.152Z,74.43
2016-03-05T12:30:16.155Z,74.43
2016-03-05T12:31:16.048Z,74.71
2016-03-05T12:32:16.003Z,74.33
2016-03-05T12:33:16.053Z,74.52
2016-03-05T12:34:15.946Z,74.04
2016-03-05T12:35:15.980Z,74.14
2016-03-05T12:36:15.827Z,74.14
2016-03-05T12:37:15.766Z,74.52
2016-03-05T12:38:15.708Z,74.99
2016-03-05T12:39:15.647Z,74.9
2016-03-05T12:40:15.572Z,74.71
2016-03-05T12:41:15.387Z,74.9
2016-03-05T12:42:15.718Z,74.52
2016-03-05T12:43:15.424Z,74.39
2016-03-05T12:44:15.598Z,74.2
2016-03-05T12:45:15.288Z,74.9
2016-03-05T12:46:15.354Z,75.38
2016-03-05T12:47:15.263Z,75.19
2016-03-05T12:48:15.109Z,75.19
2016-03-05T12:49:14.299Z,75.28
2016-03-05T12:50:15.036Z,75.34
2016-03-05T12:51:14.962Z,75.57
2016-03-05T12:52:14.901Z,75.95
2016-03-05T12:53:15.044Z,75.43
2016-03-05T12:54:14.907Z,75.95
2016-03-05T12:55:14.800Z,75.85